Upper Darby, Pennsylvania
Current Conditions -  °F | °C
As of 3:54 AM on Monday 20 Oct 2014 (Local Time) from KPHL Reporting Station
Few Clouds Few Clouds  
Wind Chill: 42°   Ceiling: Unl
Heat Index: 42°   Visibility: 10mi
Dew Point: 32°   Wind: 0mph
Humidity: 67%   Direction: NA
Pressure: 30.11"   Gusts: NA
Location:  39.93°N, 75.27°W
Report Text: KPHL 200754Z 00000KT 10SM FEW250 06/00 A3011 RMK AO2 SLP195 T00560000 $
Loading
Personal Weather Stations






























Interactive Weather Map
Tropical Storm Tracking
New forecast layout! Learn more

10-Day Weather Forecast

Advertisements
Track Severe Weather on mobile